CheckWX is a tool to help pilots better visualize weather data.  It is not intended as a substitute for an official pre-flight weather briefing.

08:56:47 UTC

PHNL METAR
Daniel K Inouye International Airport
Honolulu, Hawaii, USA
Current

1 hour ago

PHNL 170753Z 06011KT 10SM FEW014 SCT030 BKN044 27/22 A3000 RMK AO2 SLP157 VCSH NE-E T02720222
Observed
Jul-17 @ 07:53 UTC
Wind
  • 060° at 11 KTS
Visibility
10 SM
Flight Rules
VFR
Cloud Levels
  • Few at 1,400' AGL
  • Scattered at 3,000' AGL
  • Broken at 4,400' AGL
Temperature
27°C / 81°F
Dewpoint
22°C / 72°F
Heat Index
29°C / 85°F
Humidity
74%
Altimeter
30" Hg
Pressure
1015.92 hPa
Previous

2 hours ago

PHNL 170653Z 06009KT 10SM FEW014 FEW031 SCT040 27/22 A2998 RMK AO2 RAB05E15 SLP152 VCSH NE-E P0000 T02720222
Observed
Jul-17 @ 06:53 UTC
Wind
  • 060° at 9 KTS
Visibility
10 SM
Flight Rules
VFR
Cloud Levels
  • Few at 1,400' AGL
  • Few at 3,100' AGL
  • Scattered at 4,000' AGL
Temperature
27°C / 81°F
Dewpoint
22°C / 72°F
Heat Index
29°C / 85°F
Humidity
74%
Altimeter
29.98" Hg
Pressure
1015.22 hPa
Current Rain
0.01"
Previous

3 hours ago

PHNL 170553Z 07007KT 10SM FEW014 FEW026 SCT050 28/22 A2997 RMK AO2 SLP147 VCSH NE-E T02780222 10333 20272 53015
Observed
Jul-17 @ 05:53 UTC
Wind
  • 070° at 7 KTS
Visibility
10 SM
Flight Rules
VFR
Cloud Levels
  • Few at 1,400' AGL
  • Few at 2,600' AGL
  • Scattered at 5,000' AGL
Temperature
28°C / 82°F
Dewpoint
22°C / 72°F
Heat Index
30°C / 86°F
Humidity
70%
Altimeter
29.97" Hg
Pressure
1014.92 hPa